Latest Weather Observations for Yarrawonga

IDN60801

Issued at 6:13 pm EST Monday 4 July 2022 (issued every 10 minutes, with the page automatically refreshed every 10 minutes)

About weather observations | Map of weather stations | Latest weather observations for NSW | Other Formats
Station Details ID: 081124 Name: YARRAWONGA Lat: -36.03 Lon: 146.03 Height: 128.9 m
Data from the previous 72 hours. | See also: Recent months at Yarrawonga
Date/Time
EST
Temp
°C
App
Temp
°C
Dew
Point
°C
Rel
Hum
%
Delta-T
°C
Wind Press
QNH
hPa
Press
MSL
hPa
Rain since
9am
mm
Dir  Spd
km/h
Gust
km/h
Spd
kts
Gust
kts
04/06:00pm 5.6 2.4 4.9 95 0.3 SW 11 11 6 6 1022.0 1022.3 0.0
04/05:30pm 7.5 4.7 5.0 84 1.1 SW 9 9 5 5 1021.8 1022.1 0.0
04/05:00pm 10.2 7.2 5.8 74 2.0 SW 11 11 6 6 1021.8 1022.1 0.0
04/04:30pm 12.9 10.3 6.3 64 3.2 SW 9 13 5 7 1021.6 1021.9 0.0
04/04:00pm 14.0 10.9 5.6 57 4.0 SSW 11 17 6 9 1021.6 1021.9 0.0
04/03:30pm 14.4 10.5 5.2 54 4.4 SSW 15 19 8 10 1021.7 1022.0 0.0
04/03:00pm 14.7 10.4 5.2 53 4.5 SSW 17 26 9 14 1021.6 1021.9 0.0
04/02:30pm 14.6 9.7 5.1 53 4.5 SSW 20 26 11 14 1021.5 1021.8 0.0
04/02:00pm 14.4 9.7 5.0 53 4.4 SSW 19 24 10 13 1021.7 1022.0 0.0
04/01:30pm 14.2 9.8 4.8 53 4.4 SSW 17 22 9 12 1021.9 1022.2 0.0
04/01:00pm 13.8 9.0 4.4 53 4.3 SSW 19 24 10 13 1022.2 1022.5 0.0
04/12:30pm 13.4 9.0 4.6 55 4.1 SSW 17 24 9 13 1022.7 1023.0 0.0
04/12:00pm 12.6 8.2 4.8 59 3.6 SSW 17 22 9 12 1023.2 1023.4 0.0
04/11:30am 12.3 8.3 4.8 60 3.5 SSW 15 20 8 11 1023.6 1023.8 0.0
04/11:00am 11.5 8.1 6.0 69 2.6 SSW 13 17 7 9 1023.7 1023.9 0.0
04/10:30am 9.8 6.7 5.6 75 1.9 SSW 11 15 6 8 1024.1 1024.3 0.0
04/10:00am 8.4 5.8 6.2 86 1.0 SSW 9 13 5 7 1024.1 1024.3 0.0
04/09:30am 6.4 4.4 6.3 99 0.0 SSW 6 7 3 4 1023.9 1024.1 0.0
04/09:00am 4.0 1.9 4.0 100 0.0 SSW 4 6 2 3 1023.8 1024.0 0.0
04/08:30am 0.8 -2.2 0.8 100 0.0 SW 6 6 3 3 1023.6 1023.8 0.0
04/08:00am -0.3 -2.7 -0.3 100 0.0 SW 2 2 1 1 1023.7 1023.9 0.0
04/07:30am -0.8 -3.7 -0.8 100 0.0 SW 4 6 2 3 1023.4 1023.6 0.0
04/07:00am -0.8 -4.0 -0.8 100 0.0 SW 6 6 3 3 1023.3 1023.5 0.0
04/06:30am 0.0 -3.1 0.0 100 0.0 SSW 6 6 3 3 1023.2 1023.4 0.0
04/06:00am 0.2 -2.9 0.2 100 0.0 SSW 6 6 3 3 1022.9 1023.2 0.0
04/05:30am -0.3 -3.5 -0.3 100 0.0 SSW 6 7 3 4 1022.7 1023.0 0.0
04/05:00am -0.6 -3.8 -0.6 100 0.0 SSW 6 7 3 4 1022.5 1022.8 0.0
04/04:30am -0.5 -4.3 -0.5 100 0.0 SSW 9 11 5 6 1022.4 1022.7 0.0
04/04:00am 0.2 -2.9 0.2 100 0.0 SSW 6 6 3 3 1022.4 1022.7 0.0
04/03:30am -0.8 -4.0 -0.8 100 0.0 SSW 6 7 3 4 1022.5 1022.8 0.0
04/03:00am -0.2 -3.0 -0.2 100 0.0 SW 4 6 2 3 1022.5 1022.8 0.0
04/02:30am -0.3 -3.7 -0.3 100 0.0 SW 7 7 4 4 1022.8 1023.1 0.0
04/02:00am 0.1 -3.0 0.1 100 0.0 SW 6 7 3 4 1022.7 1023.0 0.0
04/01:30am 0.9 -1.7 0.9 100 0.0 SW 4 6 2 3 1022.6 1022.9 0.0
04/01:00am 1.3 -1.2 1.3 100 0.0 SSW 4 6 2 3 1022.9 1023.2 0.0
04/12:30am 1.3 -1.6 1.3 100 0.0 SSW 6 6 3 3 1023.1 1023.3 0.0
04/12:00am 1.7 -1.2 1.7 100 0.0 SSW 6 6 3 3 1023.2 1023.4 0.0
 
Date/Time
EST
Temp
°C
App
Temp
°C
Dew
Point
°C
Rel
Hum
%
Delta-T
°C
Wind Press
QNH
hPa
Press
MSL
hPa
Rain since
9am
mm
Dir  Spd
km/h
Gust
km/h
Spd
kts
Gust
kts
03/11:30pm 1.7 -1.2 1.7 100 0.0 SSW 6 6 3 3 1023.3 1023.5 0.0
03/11:00pm 1.9 -1.1 1.9 100 0.0 SW 7 9 4 5 1023.3 1023.5 0.0
03/10:30pm 1.8 -1.2 1.8 100 0.0 SW 7 9 4 5 1023.1 1023.3 0.0
03/10:00pm 2.1 -1.3 2.1 100 0.0 SW 9 9 5 5 1023.1 1023.3 0.0
03/09:30pm 2.5 -0.4 2.4 99 0.0 SW 7 7 4 4 1022.9 1023.2 0.0
03/09:00pm 3.6 0.9 3.6 100 0.0 SW 7 7 4 4 1023.1 1023.3 0.0
03/08:30pm 3.4 0.6 3.3 99 0.0 SW 7 9 4 5 1023.1 1023.3 0.0
03/08:00pm 4.4 1.8 4.3 99 0.0 SW 7 7 4 4 1022.9 1023.2 0.0
03/07:30pm 5.6 3.3 5.5 99 0.0 WSW 7 7 4 4 1022.7 1023.0 0.0
03/07:00pm 5.6 3.3 5.5 99 0.0 SW 7 7 4 4 1022.7 1023.0 0.0
03/06:30pm 5.9 3.2 5.5 97 0.2 SW 9 11 5 6 1022.6 1022.9 0.0
03/06:00pm 6.3 3.7 5.9 97 0.2 SW 9 11 5 6 1022.4 1022.7 0.0
03/05:30pm 7.7 4.8 6.3 91 0.6 SW 11 13 6 7 1022.4 1022.7 0.0
03/05:00pm 9.5 6.6 6.4 81 1.4 SW 11 13 6 7 1022.3 1022.6 0.0
03/04:30pm 12.1 9.6 6.6 69 2.6 SW 9 11 5 6 1022.3 1022.6 0.0
03/04:00pm 13.6 11.1 6.5 62 3.4 SW 9 13 5 7 1022.4 1022.7 0.0
03/03:30pm 13.8 11.4 5.4 57 4.0 SSW 7 11 4 6 1022.4 1022.7 0.0
03/03:00pm 14.2 11.8 5.3 55 4.2 SSW 7 11 4 6 1022.6 1022.9 0.0
03/02:30pm 13.9 11.7 6.0 59 3.8 SSW 7 9 4 5 1022.6 1022.9 0.0
03/02:00pm 13.1 10.8 5.5 60 3.6 SSW 7 11 4 6 1022.6 1022.9 0.0
03/01:30pm 13.5 11.2 5.7 59 3.7 SSW 7 11 4 6 1022.8 1023.1 0.0
03/01:00pm 12.9 9.9 6.0 63 3.3 SSW 11 13 6 7 1022.9 1023.2 0.0
03/12:30pm 12.4 10.0 5.3 62 3.3 SW 7 13 4 7 1023.4 1023.6 0.0
03/12:00pm 12.1 9.8 4.6 60 3.4 SSE 6 11 3 6 1023.8 1024.0 0.0
03/11:30am 11.2 8.9 4.9 65 2.9 S 6 9 3 5 1024.3 1024.5 0.0
03/11:00am 10.1 7.2 4.9 70 2.3 S 9 13 5 7 1024.6 1024.8 0.0
03/10:30am 9.0 6.4 6.3 83 1.3 SSW 9 13 5 7 1024.7 1024.9 0.0
03/10:00am 7.3 5.3 6.1 92 0.5 SSW 6 7 3 4 1025.0 1025.2 0.0
03/09:30am 5.1 2.5 4.4 95 0.3 SSW 7 9 4 5 1024.9 1025.1 0.0
03/09:00am 4.6 2.1 4.6 100 0.0 SW 7 13 4 7 1024.6 1024.8 0.0
03/08:30am 1.0 -2.2 1.0 100 0.0 SW 7 7 4 4 1024.7 1024.9 0.0
03/08:00am -0.3 -3.7 -0.3 100 0.0 SW 7 9 4 5 1024.6 1024.8 0.0
03/07:30am -0.8 -4.0 -0.8 100 0.0 WSW 6 6 3 3 1024.4 1024.6 0.0
03/07:00am -0.7 -3.5 -0.7 100 0.0 SW 4 6 2 3 1024.3 1024.5 0.0
03/06:30am -0.9 -4.3 -0.9 100 0.0 SW 7 7 4 4 1024.1 1024.3 0.0
03/06:00am -0.7 -3.9 -0.7 100 0.0 SW 6 7 3 4 1023.9 1024.1 0.0
03/05:30am -0.5 -3.7 -0.5 100 0.0 SW 6 7 3 4 1023.8 1024.0 0.0
03/05:00am -0.4 -3.8 -0.4 100 0.0 SW 7 9 4 5 1023.8 1024.0 0.0
03/04:30am -0.4 -3.8 -0.4 100 0.0 WSW 7 9 4 5 1023.8 1024.0 0.0
03/04:00am 0.3 -3.0 0.3 100 0.0 SW 7 7 4 4 1024.2 1024.4 0.0
03/03:30am -0.2 -3.4 -0.2 100 0.0 SW 6 7 3 4 1024.3 1024.5 0.0
03/03:00am -0.7 -4.1 -0.8 99 0.0 SSW 7 9 4 5 1024.5 1024.7 0.0
03/02:30am 0.4 -2.7 0.4 100 0.0 SSW 6 6 3 3 1024.9 1025.1 0.0
03/02:00am 1.0 -2.0 1.0 100 0.0 S 6 6 3 3 1024.7 1024.9 0.0
03/01:30am 0.7 -2.5 0.7 100 0.0 SSW 7 9 4 5 1024.5 1024.7 0.0
03/01:00am 0.0 -3.7 0.0 100 0.0 SSW 9 13 5 7 1024.6 1024.8 0.0
03/12:30am 0.7 -2.3 0.7 100 0.0 SSW 6 6 3 3 1024.9 1025.1 0.0
03/12:00am 0.8 -2.4 0.8 100 0.0 S 7 9 4 5 1024.9 1025.1 0.0
 
Date/Time
EST
Temp
°C
App
Temp
°C
Dew
Point
°C
Rel
Hum
%
Delta-T
°C
Wind Press
QNH
hPa
Press
MSL
hPa
Rain since
9am
mm
Dir  Spd
km/h
Gust
km/h
Spd
kts
Gust
kts
02/11:30pm 0.8 -2.2 0.8 100 0.0 SSW 6 6 3 3 1025.1 1025.4 0.0
02/11:00pm 1.7 0.0 1.7 100 0.0 CALM 0 0 0 0 1025.2 1025.5 0.0
02/10:30pm 1.7 -0.8 1.7 100 0.0 S 4 4 2 2 1025.2 1025.5 0.0
02/10:00pm 2.9 0.2 2.9 100 0.0 S 6 7 3 4 1025.2 1025.5 0.0
02/09:30pm 2.5 -0.4 2.5 100 0.0 SSW 7 9 4 5 1025.1 1025.4 0.0
02/09:00pm 1.9 -1.5 1.8 99 0.0 SW 9 9 5 5 1025.1 1025.4 0.0
02/08:30pm 2.7 -0.6 2.6 99 0.0 WSW 9 11 5 6 1025.0 1025.2 0.0
02/08:00pm 3.6 0.9 3.5 99 0.0 WSW 7 7 4 4 1025.1 1025.4 0.0
02/07:30pm 4.8 2.4 4.5 98 0.1 W 6 7 3 4 1025.1 1025.4 0.0
02/07:00pm 5.4 3.3 4.1 91 0.6 WSW 4 4 2 2 1025.2 1025.5 0.0
02/06:30pm 5.9 3.5 4.2 89 0.7 WSW 6 7 3 4 1024.9 1025.1 0.0
02/06:00pm 5.9 3.0 4.7 92 0.5 WSW 9 9 5 5 1024.8 1025.0 0.0
02/05:30pm 6.8 3.9 4.5 85 1.0 SW 9 11 5 6 1024.8 1025.0 0.0
02/05:00pm 9.8 7.4 5.4 74 2.0 WSW 7 9 4 5 1024.8 1025.0 0.0
02/04:30pm 12.0 9.4 6.1 67 2.8 SW 9 11 5 6 1024.9 1025.1 0.0
02/04:00pm 13.0 10.3 5.4 60 3.5 SW 9 11 5 6 1025.0 1025.2 0.0
02/03:30pm 13.4 10.3 5.6 59 3.7 SSW 11 15 6 8 1025.1 1025.4 0.0
02/03:00pm 13.5 9.6 5.2 57 3.9 SSW 15 19 8 10 1024.7 1024.9 0.0
02/02:30pm 13.8 9.8 4.9 55 4.2 SSW 15 20 8 11 1024.7 1024.9 0.0
02/02:00pm 13.5 9.1 4.6 55 4.1 SSW 17 24 9 13 1024.9 1025.1 0.0
02/01:30pm 13.5 9.0 4.4 54 4.2 SW 17 20 9 11 1025.0 1025.2 0.0
02/01:00pm 12.9 9.3 5.1 59 3.6 SSW 13 17 7 9 1025.6 1025.9 0.0
02/12:30pm 12.5 9.3 5.0 60 3.5 SW 11 15 6 8 1026.1 1026.4 0.0
02/12:00pm 12.0 9.3 5.4 64 3.1 SSW 9 15 5 8 1026.7 1027.0 0.0
02/11:30am 11.3 8.2 3.6 59 3.4 SSE 9 15 5 8 1027.2 1027.5 0.0
02/11:00am 9.8 7.0 5.2 73 2.1 SSE 9 13 5 7 1027.6 1027.9 0.0
02/10:30am 8.4 6.2 5.3 81 1.4 SSE 6 7 3 4 1027.8 1028.1 0.0
02/10:00am 6.8 4.9 5.1 89 0.7 SSE 4 6 2 3 1028.0 1028.3 0.0
02/09:30am 5.4 3.2 5.3 99 0.0 S 6 7 3 4 1027.8 1028.1 0.0
02/09:00am 2.9 1.0 2.8 99 0.0 SW 2 4 1 2 1027.9 1028.2 0.0
02/08:30am 1.2 -1.9 1.2 100 0.0 WSW 7 9 4 5 1028.0 1028.3 0.0
02/08:00am -0.5 -3.7 -0.5 100 0.0 WSW 6 7 3 4 1027.9 1028.2 0.0
02/07:30am -0.8 -4.0 -0.8 100 0.0 SW 6 6 3 3 1027.8 1028.1 0.0
02/07:00am -0.6 -4.0 -0.6 100 0.0 WSW 7 7 4 4 1027.6 1027.9 0.0
02/06:30am 0.0 -3.3 0.0 100 0.0 WSW 7 7 4 4 1027.3 1027.6 0.0
02/06:00am -0.6 -4.4 -0.7 99 0.0 WSW 9 11 5 6 1027.0 1027.3 0.0
02/05:30am 0.4 -2.9 0.4 100 0.0 W 7 9 4 5 1027.0 1027.3 0.0
02/05:00am 0.7 -2.0 0.6 99 0.0 SW 4 4 2 2 1026.9 1027.2 0.0
02/04:30am 0.9 -1.7 0.9 100 0.0 SW 4 6 2 3 1026.8 1027.1 0.0
02/04:00am 0.0 -3.3 -0.1 99 0.0 SW 7 7 4 4 1026.8 1027.1 0.0
02/03:30am 0.8 -2.2 0.7 99 0.0 SW 6 7 3 4 1026.8 1027.1 0.0
02/03:00am 1.8 0.1 1.7 99 0.0 CALM 0 0 0 0 1027.0 1027.3 0.0
02/02:30am 1.6 -0.9 1.5 99 0.0 S 4 7 2 4 1027.2 1027.5 0.0
02/02:00am 1.9 -1.5 1.8 99 0.0 S 9 11 5 6 1027.1 1027.4 0.0
02/01:30am 1.6 -1.9 1.5 99 0.0 SSW 9 9 5 5 1027.2 1027.5 0.0
02/01:00am 1.8 -1.2 1.7 99 0.0 SSW 7 9 4 5 1027.4 1027.7 0.0
02/12:30am 1.9 -0.9 1.8 99 0.0 SSW 6 6 3 3 1027.7 1028.0 0.0
02/12:00am 2.4 -0.5 2.4 100 0.0 SW 7 7 4 4 1027.9 1028.2 0.0
 
Date/Time
EST
Temp
°C
App
Temp
°C
Dew
Point
°C
Rel
Hum
%
Delta-T
°C
Wind Press
QNH
hPa
Press
MSL
hPa
Rain since
9am
mm
Dir  Spd
km/h
Gust
km/h
Spd
kts
Gust
kts
01/11:30pm 1.7 -1.4 1.6 99 0.0 S 7 9 4 5 1028.1 1028.4 0.0
01/11:00pm 2.9 0.6 2.9 100 0.0 S 4 6 2 3 1028.2 1028.5 0.0
01/10:30pm 3.1 0.8 3.0 99 0.0 SE 4 6 2 3 1028.3 1028.6 0.0
01/10:00pm 4.5 1.9 4.4 99 0.0 SSE 7 9 4 5 1028.3 1028.6 0.0
01/09:30pm 4.4 2.0 4.4 100 0.0 SSE 6 9 3 5 1028.1 1028.4 0.0
01/09:00pm 3.9 1.4 3.9 100 0.0 SSW 6 7 3 4 1028.1 1028.4 0.0
01/08:30pm 5.0 3.9 4.9 99 0.0 CALM 0 2 0 1 1027.8 1028.1 0.0
01/08:00pm 5.7 3.6 5.6 99 0.0 S 6 6 3 3 1027.7 1028.0 0.0
01/07:30pm 5.7 3.4 5.6 99 0.0 SW 7 9 4 5 1027.6 1027.9 0.0
01/07:00pm 6.5 4.3 6.4 99 0.0 WSW 7 9 4 5 1027.2 1027.5 0.0
01/06:30pm 6.5 4.3 6.4 99 0.0 W 7 9 4 5 1027.0 1027.3 0.0

Other formats

Comma delimited format used in spreadsheet applications
http://www.bom.gov.au/fwo/IDN60801/IDN60801.94862.axf

JavaScript Object Notation format (JSON) in row-major order
http://www.bom.gov.au/fwo/IDN60801/IDN60801.94862.json

Data quality

Most of these data are generated automatically and are frequently updated. Quality checks on data are not normally performed. It is possible for incorrect values to appear. Refer to information at About Latest Weather Observations and please check the disclaimer before using these data.